createdAt,value
2023-03-17T00:00:55.543Z,0.00
2023-03-17T00:01:55.512Z,0.00
2023-03-17T00:02:55.519Z,0.00
2023-03-17T00:03:55.514Z,0.00
2023-03-17T00:04:55.467Z,0.00
2023-03-17T00:05:55.470Z,0.00
2023-03-17T00:06:55.460Z,0.00
2023-03-17T00:07:55.476Z,0.00
2023-03-17T00:08:55.443Z,0.00
2023-03-17T00:09:55.427Z,0.00
2023-03-17T00:10:55.410Z,0.00
2023-03-17T00:11:55.401Z,0.00
2023-03-17T00:12:55.407Z,0.00
2023-03-17T00:13:55.379Z,0.00
2023-03-17T00:14:55.358Z,0.00
2023-03-17T00:15:55.427Z,0.00
2023-03-17T00:16:55.331Z,0.00
2023-03-17T00:17:55.354Z,0.00
2023-03-17T00:18:55.330Z,0.00
2023-03-17T00:19:55.302Z,0.00
2023-03-17T00:20:55.297Z,0.00
2023-03-17T00:21:55.280Z,0.00
2023-03-17T00:22:55.296Z,0.00
2023-03-17T00:23:55.265Z,0.00
2023-03-17T00:24:55.258Z,0.00
2023-03-17T00:25:55.248Z,0.00
2023-03-17T00:26:55.218Z,0.00
2023-03-17T00:27:55.232Z,0.00
2023-03-17T00:28:55.205Z,0.00
2023-03-17T00:29:55.185Z,0.00
2023-03-17T00:30:56.224Z,0.00
2023-03-17T00:31:55.177Z,0.00
2023-03-17T00:32:55.185Z,0.00
2023-03-17T00:33:55.142Z,0.00
2023-03-17T00:34:55.133Z,0.00
2023-03-17T00:35:55.139Z,0.00
2023-03-17T00:36:55.127Z,0.00
2023-03-17T00:37:55.119Z,0.00
2023-03-17T00:38:55.086Z,0.00
2023-03-17T00:39:55.106Z,0.00
2023-03-17T00:40:55.068Z,0.00
2023-03-17T00:41:55.046Z,0.00
2023-03-17T00:42:55.055Z,0.00
2023-03-17T00:43:55.033Z,0.00
2023-03-17T00:44:55.016Z,0.00
2023-03-17T00:45:55.014Z,0.00
2023-03-17T00:46:55.054Z,0.00
2023-03-17T00:47:55.005Z,0.00
2023-03-17T00:48:54.977Z,0.00
2023-03-17T00:49:54.970Z,0.00
2023-03-17T00:50:54.988Z,0.00
2023-03-17T00:51:55.006Z,0.00
2023-03-17T00:52:54.956Z,0.00
2023-03-17T00:53:54.923Z,0.00
2023-03-17T00:54:54.905Z,0.00
2023-03-17T00:55:54.896Z,0.00
2023-03-17T00:56:54.893Z,0.00
2023-03-17T00:57:54.896Z,0.00
2023-03-17T00:58:54.891Z,0.00
2023-03-17T00:59:54.855Z,0.00
2023-03-17T01:00:54.873Z,0.00
2023-03-17T01:01:54.901Z,0.00
2023-03-17T01:02:54.861Z,0.00
2023-03-17T01:03:54.812Z,0.00
2023-03-17T01:05:05.572Z,0.00
2023-03-17T01:05:56.785Z,0.00
2023-03-17T01:06:54.783Z,0.00
2023-03-17T01:07:54.778Z,0.00
2023-03-17T01:08:54.752Z,0.00
2023-03-17T01:09:54.761Z,0.00
2023-03-17T01:10:54.748Z,0.00
2023-03-17T01:11:54.717Z,0.00
2023-03-17T01:12:54.728Z,0.00
2023-03-17T01:13:54.701Z,0.00
2023-03-17T01:14:54.685Z,0.00
2023-03-17T01:15:54.721Z,0.00
2023-03-17T01:16:54.654Z,0.00
2023-03-17T01:17:54.677Z,0.00
2023-03-17T01:18:54.683Z,0.00
2023-03-17T01:19:54.624Z,0.00
2023-03-17T01:20:54.653Z,0.00
2023-03-17T01:21:54.598Z,0.00
2023-03-17T01:22:54.604Z,0.00
2023-03-17T01:23:54.577Z,0.00
2023-03-17T01:24:54.562Z,0.00
2023-03-17T01:25:54.563Z,0.00
2023-03-17T01:26:54.545Z,0.00
2023-03-17T01:27:54.542Z,0.00
2023-03-17T01:28:54.520Z,0.00
2023-03-17T01:29:54.519Z,0.00
2023-03-17T01:30:54.507Z,0.00
2023-03-17T01:31:54.526Z,0.00
2023-03-17T01:32:54.549Z,0.00
2023-03-17T01:33:54.457Z,0.00
2023-03-17T01:34:54.454Z,0.00
2023-03-17T01:35:54.492Z,0.00
2023-03-17T01:36:54.428Z,0.00
2023-03-17T01:37:54.441Z,0.00
2023-03-17T01:38:54.411Z,0.00
2023-03-17T01:39:54.409Z,0.00
2023-03-17T01:40:54.395Z,0.00
2023-03-17T01:41:54.381Z,0.00
2023-03-17T01:42:54.389Z,0.00
2023-03-17T01:43:54.353Z,0.00
2023-03-17T01:44:54.344Z,0.00
2023-03-17T01:45:54.352Z,0.00
2023-03-17T01:46:54.319Z,0.00
2023-03-17T01:47:54.344Z,0.00
2023-03-17T01:48:54.301Z,0.00
2023-03-17T01:49:54.300Z,0.00
2023-03-17T01:50:54.287Z,0.00
2023-03-17T01:51:54.298Z,0.00
2023-03-17T01:52:54.286Z,0.00
2023-03-17T01:53:54.251Z,0.00
2023-03-17T01:54:54.246Z,0.00
2023-03-17T01:55:54.264Z,0.00
2023-03-17T01:56:54.570Z,0.00
2023-03-17T01:57:56.416Z,0.00
2023-03-17T01:58:55.028Z,0.00
2023-03-17T01:59:55.724Z,0.00
2023-03-17T02:00:55.345Z,0.00
2023-03-17T02:01:55.309Z,0.00
2023-03-17T02:02:55.550Z,0.00
2023-03-17T02:03:54.980Z,0.00
2023-03-17T02:04:54.576Z,0.00
2023-03-17T02:05:54.423Z,0.00
2023-03-17T02:06:58.393Z,0.00
2023-03-17T02:07:55.364Z,0.00
2023-03-17T02:08:54.565Z,0.00
2023-03-17T02:09:55.575Z,0.00
2023-03-17T02:10:54.316Z,0.00
2023-03-17T02:11:58.080Z,0.00
2023-03-17T02:12:54.439Z,0.00
2023-03-17T02:13:55.335Z,0.00
2023-03-17T02:14:55.339Z,0.00
2023-03-17T02:15:54.410Z,0.00
2023-03-17T02:16:54.284Z,0.00
2023-03-17T02:17:55.140Z,0.00
2023-03-17T02:18:55.079Z,0.00
2023-03-17T02:19:54.962Z,0.00
2023-03-17T02:20:54.259Z,0.00
2023-03-17T02:21:54.779Z,0.00
2023-03-17T02:22:54.431Z,0.00
2023-03-17T02:23:55.933Z,0.00
2023-03-17T02:24:55.838Z,0.00
2023-03-17T02:25:54.204Z,0.00
2023-03-17T02:26:54.091Z,0.00
2023-03-17T02:27:54.309Z,0.00
2023-03-17T02:28:54.118Z,0.00
2023-03-17T02:29:57.088Z,0.00
2023-03-17T02:30:54.334Z,0.00
2023-03-17T02:31:54.680Z,0.00
2023-03-17T02:32:54.856Z,0.00
2023-03-17T02:33:54.965Z,0.00
2023-03-17T02:34:55.523Z,0.00
2023-03-17T02:35:54.265Z,0.00
2023-03-17T02:36:54.139Z,0.00
2023-03-17T02:37:54.908Z,0.00
2023-03-17T02:38:54.598Z,0.00
2023-03-17T02:39:54.512Z,0.00
2023-03-17T02:40:55.034Z,0.00
2023-03-17T02:41:54.060Z,0.00
2023-03-17T02:42:55.172Z,0.00
2023-03-17T02:43:54.293Z,0.00
2023-03-17T02:44:54.650Z,0.00
2023-03-17T02:45:54.943Z,0.00
2023-03-17T02:46:56.634Z,0.00
2023-03-17T02:47:56.199Z,0.00
2023-03-17T02:48:53.988Z,0.00
2023-03-17T02:49:56.637Z,0.00
2023-03-17T02:50:55.451Z,0.00
2023-03-17T02:52:00.168Z,0.00
2023-03-17T02:52:55.572Z,0.00
2023-03-17T02:53:58.308Z,0.00
2023-03-17T02:54:55.003Z,0.00
2023-03-17T02:55:56.832Z,0.00
2023-03-17T02:56:54.825Z,0.00
2023-03-17T02:57:54.939Z,0.00
2023-03-17T02:58:55.665Z,0.00
2023-03-17T02:59:56.587Z,0.00
2023-03-17T03:00:56.281Z,0.00
2023-03-17T03:01:53.733Z,0.00
2023-03-17T03:02:55.633Z,0.00
2023-03-17T03:03:53.859Z,0.00
2023-03-17T03:04:54.310Z,0.00
2023-03-17T03:05:55.104Z,0.00
2023-03-17T03:06:53.771Z,0.00
2023-03-17T03:07:57.282Z,0.00
2023-03-17T03:08:57.096Z,0.00
2023-03-17T03:09:53.715Z,0.00
2023-03-17T03:10:53.668Z,0.00
2023-03-17T03:11:53.739Z,0.00
2023-03-17T03:12:54.291Z,0.00
2023-03-17T03:13:53.788Z,0.00
2023-03-17T03:14:53.648Z,0.00
2023-03-17T03:15:54.448Z,0.00
2023-03-17T03:16:54.429Z,0.00
2023-03-17T03:17:53.638Z,0.00
2023-03-17T03:18:54.355Z,0.00
2023-03-17T03:19:56.289Z,0.00
2023-03-17T03:20:53.555Z,0.00
2023-03-17T03:21:53.566Z,0.00
2023-03-17T03:22:56.310Z,0.00
2023-03-17T03:23:54.310Z,0.00
2023-03-17T03:24:54.303Z,0.00
2023-03-17T03:25:54.690Z,0.00
2023-03-17T03:26:54.424Z,0.00
2023-03-17T03:27:53.496Z,0.00
2023-03-17T03:28:53.683Z,0.00
2023-03-17T03:29:55.253Z,0.00
2023-03-17T03:30:53.520Z,0.00
2023-03-17T03:31:53.513Z,0.00
2023-03-17T03:32:56.465Z,0.00
2023-03-17T03:33:53.549Z,0.00
2023-03-17T03:34:54.368Z,0.00
2023-03-17T03:35:54.907Z,0.00
2023-03-17T03:36:53.475Z,0.00
2023-03-17T03:37:55.645Z,0.00
2023-03-17T03:38:54.434Z,0.00
2023-03-17T03:39:54.290Z,0.00
2023-03-17T03:40:53.893Z,0.00
2023-03-17T03:41:53.418Z,0.00
2023-03-17T03:42:53.923Z,0.00
2023-03-17T03:43:54.910Z,0.00
2023-03-17T03:44:55.284Z,0.00
2023-03-17T03:45:54.571Z,0.00
2023-03-17T03:46:55.446Z,0.00
2023-03-17T03:47:53.924Z,0.00
2023-03-17T03:48:54.662Z,0.00
2023-03-17T03:49:54.959Z,0.00
2023-03-17T03:50:54.264Z,0.00
2023-03-17T03:51:55.387Z,0.00
2023-03-17T03:52:54.474Z,0.00
2023-03-17T03:53:54.489Z,0.00
2023-03-17T03:54:55.144Z,0.00
2023-03-17T03:55:53.988Z,0.00
2023-03-17T03:56:53.277Z,0.00
2023-03-17T03:57:54.902Z,0.00
2023-03-17T03:58:56.472Z,0.00
2023-03-17T03:59:57.431Z,0.00
2023-03-17T04:00:58.118Z,0.00
2023-03-17T04:01:56.470Z,0.00
2023-03-17T04:02:54.045Z,0.00
2023-03-17T04:03:53.886Z,0.00
2023-03-17T04:04:53.838Z,0.00
2023-03-17T04:05:54.160Z,0.00
2023-03-17T04:06:53.250Z,0.00
2023-03-17T04:07:55.142Z,0.00
2023-03-17T04:08:54.144Z,0.00
2023-03-17T04:09:59.808Z,0.00
2023-03-17T04:10:56.631Z,0.00
2023-03-17T04:11:53.182Z,0.00
2023-03-17T04:12:54.127Z,0.00
2023-03-17T04:13:54.628Z,0.00
2023-03-17T04:14:54.636Z,0.00
2023-03-17T04:15:53.939Z,0.00
2023-03-17T04:16:53.281Z,0.00
2023-03-17T04:17:55.687Z,0.00
2023-03-17T04:18:55.697Z,0.00
2023-03-17T04:19:54.757Z,0.00
2023-03-17T04:20:54.625Z,0.00
2023-03-17T04:21:54.764Z,0.00
2023-03-17T04:22:55.638Z,0.00
2023-03-17T04:23:53.143Z,0.00
2023-03-17T04:24:53.629Z,0.00
2023-03-17T04:25:54.632Z,0.00
2023-03-17T04:26:53.971Z,0.00
2023-03-17T04:27:53.887Z,0.00
2023-03-17T04:28:53.074Z,0.00
2023-03-17T04:29:54.407Z,0.00
2023-03-17T04:30:52.967Z,0.00
2023-03-17T04:31:54.515Z,0.00
2023-03-17T04:32:53.933Z,0.00
2023-03-17T04:33:54.139Z,0.00
2023-03-17T04:34:54.907Z,0.00
2023-03-17T04:35:53.129Z,0.00
2023-03-17T04:36:53.622Z,0.00
2023-03-17T04:37:54.685Z,0.00
2023-03-17T04:39:01.882Z,0.00
2023-03-17T04:39:56.620Z,0.00
2023-03-17T04:40:53.379Z,0.00
2023-03-17T04:41:52.916Z,0.00
2023-03-17T04:42:54.383Z,0.00
2023-03-17T04:43:53.954Z,0.00
2023-03-17T04:44:53.815Z,0.00
2023-03-17T04:45:54.463Z,0.00
2023-03-17T04:46:53.634Z,0.00
2023-03-17T04:47:53.439Z,0.00
2023-03-17T04:48:54.139Z,0.00
2023-03-17T04:49:52.751Z,0.00
2023-03-17T04:50:53.420Z,0.00
2023-03-17T04:51:54.676Z,0.00
2023-03-17T04:52:53.581Z,0.00
2023-03-17T04:53:54.801Z,0.00
2023-03-17T04:54:54.362Z,0.00
2023-03-17T04:55:54.119Z,0.00
2023-03-17T04:56:54.361Z,0.00
2023-03-17T04:57:54.056Z,0.00
2023-03-17T04:58:53.397Z,0.00
2023-03-17T04:59:54.412Z,0.00
2023-03-17T05:00:52.962Z,0.00
2023-03-17T05:01:54.588Z,0.00
2023-03-17T05:02:53.414Z,0.00
2023-03-17T05:03:52.975Z,4.00
2023-03-17T05:04:56.306Z,4.00
2023-03-17T05:05:54.100Z,4.00
2023-03-17T05:06:53.652Z,4.00
2023-03-17T05:07:54.512Z,4.00
2023-03-17T05:08:53.599Z,4.00
2023-03-17T05:09:54.644Z,8.00
2023-03-17T05:10:54.390Z,8.00
2023-03-17T05:11:54.373Z,8.00
2023-03-17T05:12:54.135Z,8.00
2023-03-17T05:13:55.120Z,12.00
2023-03-17T05:14:52.830Z,20.00
2023-03-17T05:15:52.654Z,20.00
2023-03-17T05:16:54.548Z,24.00
2023-03-17T05:17:53.291Z,28.00
2023-03-17T05:18:59.229Z,36.00
2023-03-17T05:19:54.573Z,40.00
2023-03-17T05:20:53.325Z,48.00
2023-03-17T05:21:53.314Z,56.00
2023-03-17T05:22:53.358Z,64.00
2023-03-17T05:23:54.929Z,76.00
2023-03-17T05:24:56.242Z,88.00
2023-03-17T05:25:53.407Z,100.00
2023-03-17T05:26:54.321Z,108.00
2023-03-17T05:27:53.385Z,128.00
2023-03-17T05:28:53.392Z,144.00
2023-03-17T05:29:53.329Z,160.00
2023-03-17T05:30:53.590Z,176.00
2023-03-17T05:31:54.294Z,196.00
2023-03-17T05:32:53.566Z,216.00
2023-03-17T05:33:52.374Z,236.00
2023-03-17T05:34:52.533Z,264.00
2023-03-17T05:35:52.850Z,288.00
2023-03-17T05:36:53.107Z,316.00
2023-03-17T05:37:52.324Z,348.00
2023-03-17T05:38:52.468Z,380.00
2023-03-17T05:39:54.125Z,420.00
2023-03-17T05:40:56.058Z,460.00
2023-03-17T05:41:53.608Z,500.00
2023-03-17T05:42:53.115Z,548.00
2023-03-17T05:43:52.882Z,596.00
2023-03-17T05:44:55.222Z,652.00
2023-03-17T05:45:53.818Z,708.00
2023-03-17T05:46:52.344Z,768.00
2023-03-17T05:47:52.336Z,828.00
2023-03-17T05:48:53.102Z,892.00
2023-03-17T05:49:52.348Z,948.00
2023-03-17T05:50:53.752Z,1012.00
2023-03-17T05:51:52.749Z,1076.00
2023-03-17T05:52:53.089Z,1144.00
2023-03-17T05:53:52.212Z,1212.00
2023-03-17T05:54:52.384Z,1288.00
2023-03-17T05:55:53.302Z,1360.00
2023-03-17T05:56:52.177Z,1440.00
2023-03-17T05:57:52.170Z,1524.00
2023-03-17T05:58:52.187Z,1604.00
2023-03-17T05:59:52.931Z,1696.00
2023-03-17T06:00:52.110Z,1792.00
2023-03-17T06:01:52.120Z,1888.00
2023-03-17T06:02:52.379Z,1976.00
2023-03-17T06:03:55.915Z,2044.00
2023-03-17T06:04:52.750Z,2108.00
2023-03-17T06:05:57.575Z,2168.00
2023-03-17T06:06:52.845Z,2220.00
2023-03-17T06:07:57.195Z,2276.00
2023-03-17T06:08:53.926Z,2312.00
2023-03-17T06:09:53.253Z,2308.00
2023-03-17T06:10:53.402Z,2304.00
2023-03-17T06:11:52.180Z,2336.00
2023-03-17T06:13:03.667Z,2392.00
2023-03-17T06:13:52.951Z,2472.00
2023-03-17T06:15:25.732Z,2576.00
2023-03-17T06:15:51.803Z,2696.00
2023-03-17T06:16:51.762Z,2832.00
2023-03-17T06:17:51.735Z,2956.00
2023-03-17T06:18:51.729Z,3056.00
2023-03-17T06:19:51.764Z,3148.00
2023-03-17T06:20:51.713Z,3144.00
2023-03-17T06:21:51.702Z,3156.00
2023-03-17T06:23:03.408Z,3036.00
2023-03-17T06:23:53.689Z,3036.00
2023-03-17T06:24:51.697Z,3072.00
2023-03-17T06:25:52.670Z,3116.00
2023-03-17T06:26:51.661Z,3188.00
2023-03-17T06:27:51.647Z,3296.00
2023-03-17T06:28:51.637Z,3424.00
2023-03-17T06:29:51.645Z,3544.00
2023-03-17T06:30:51.739Z,3712.00
2023-03-17T06:31:51.611Z,3860.00
2023-03-17T06:32:51.666Z,3988.00
2023-03-17T06:33:51.606Z,4188.00
2023-03-17T06:34:51.605Z,4328.00
2023-03-17T06:35:51.644Z,4460.00
2023-03-17T06:36:51.562Z,4640.00
2023-03-17T06:37:51.569Z,4768.00
2023-03-17T06:38:51.542Z,4872.00
2023-03-17T06:39:51.543Z,4972.00
2023-03-17T06:40:51.531Z,5096.00
2023-03-17T06:41:51.527Z,5136.00
2023-03-17T06:42:51.509Z,5124.00
2023-03-17T06:43:51.495Z,5012.00
2023-03-17T06:44:51.497Z,5100.00
2023-03-17T06:45:51.483Z,5016.00
2023-03-17T06:46:51.580Z,5168.00
2023-03-17T06:47:51.455Z,5136.00
2023-03-17T06:48:51.433Z,5112.00
2023-03-17T06:49:51.440Z,5220.00
2023-03-17T06:50:51.477Z,5020.00
2023-03-17T06:51:51.415Z,4872.00
2023-03-17T06:52:51.399Z,4908.00
2023-03-17T06:53:51.382Z,4976.00
2023-03-17T06:54:51.406Z,4980.00
2023-03-17T06:55:51.395Z,5024.00
2023-03-17T06:56:51.356Z,5124.00
2023-03-17T06:57:51.531Z,5340.00
2023-03-17T06:58:51.330Z,5456.00
2023-03-17T06:59:51.316Z,5572.00
2023-03-17T07:00:51.324Z,5676.00
2023-03-17T07:01:51.370Z,5804.00
2023-03-17T07:02:51.298Z,5872.00
2023-03-17T07:03:51.271Z,5944.00
2023-03-17T07:04:51.341Z,6048.00
2023-03-17T07:05:51.250Z,6208.00
2023-03-17T07:06:51.235Z,6360.00
2023-03-17T07:07:51.236Z,6408.00
2023-03-17T07:08:52.287Z,6372.00
2023-03-17T07:09:51.307Z,6364.00
2023-03-17T07:10:51.196Z,6356.00
2023-03-17T07:11:51.194Z,6480.00
2023-03-17T07:12:51.176Z,6480.00
2023-03-17T07:13:51.173Z,6540.00
2023-03-17T07:14:51.174Z,6772.00
2023-03-17T07:15:52.784Z,6844.00
2023-03-17T07:16:51.199Z,6908.00
2023-03-17T07:17:51.124Z,7064.00
2023-03-17T07:18:51.124Z,7216.00
2023-03-17T07:19:51.093Z,7348.00
2023-03-17T07:20:51.124Z,7528.00
2023-03-17T07:21:51.110Z,7620.00
2023-03-17T07:22:51.068Z,7676.00
2023-03-17T07:23:51.065Z,7628.00
2023-03-17T07:24:51.053Z,7560.00
2023-03-17T07:25:51.083Z,7608.00
2023-03-17T07:26:51.039Z,7664.00
2023-03-17T07:27:51.013Z,7700.00
2023-03-17T07:28:50.996Z,7684.00
2023-03-17T07:29:51.036Z,7712.00
2023-03-17T07:30:50.984Z,7668.00
2023-03-17T07:31:51.010Z,7608.00
2023-03-17T07:32:51.027Z,7500.00
2023-03-17T07:33:50.946Z,7476.00
2023-03-17T07:34:51.000Z,7520.00
2023-03-17T07:35:50.966Z,7664.00
2023-03-17T07:36:50.907Z,7636.00
2023-03-17T07:37:51.905Z,7640.00
2023-03-17T07:38:50.902Z,7660.00
2023-03-17T07:39:50.917Z,7640.00
2023-03-17T07:40:50.892Z,7624.00
2023-03-17T07:41:50.891Z,7588.00
2023-03-17T07:42:50.870Z,7492.00
2023-03-17T07:43:50.872Z,7404.00
2023-03-17T07:44:50.862Z,7368.00
2023-03-17T07:45:50.847Z,7272.00
2023-03-17T07:46:50.821Z,7268.00
2023-03-17T07:47:50.794Z,7264.00
2023-03-17T07:48:50.801Z,7284.00
2023-03-17T07:49:50.821Z,7272.00
2023-03-17T07:50:50.770Z,7340.00
2023-03-17T07:51:50.781Z,7408.00
2023-03-17T07:52:50.793Z,7392.00
2023-03-17T07:53:50.731Z,7492.00
2023-03-17T07:54:50.747Z,7508.00
2023-03-17T07:55:50.736Z,7484.00
2023-03-17T07:56:50.726Z,7472.00
2023-03-17T07:57:50.842Z,7444.00
2023-03-17T07:58:50.700Z,7464.00
2023-03-17T07:59:50.708Z,7460.00
2023-03-17T08:00:50.739Z,7476.00
2023-03-17T08:01:50.753Z,7408.00
2023-03-17T08:03:06.909Z,7388.00
2023-03-17T08:03:52.716Z,7388.00
2023-03-17T08:04:50.680Z,7332.00
2023-03-17T08:05:50.616Z,7376.00
2023-03-17T08:06:50.636Z,7448.00
2023-03-17T08:07:50.598Z,7468.00
2023-03-17T08:08:50.612Z,7484.00
2023-03-17T08:09:50.617Z,7476.00
2023-03-17T08:10:50.581Z,7448.00
2023-03-17T08:11:50.602Z,7424.00
2023-03-17T08:12:50.553Z,7396.00
2023-03-17T08:13:50.533Z,7392.00
2023-03-17T08:14:50.524Z,7448.00
2023-03-17T08:15:50.551Z,7476.00
2023-03-17T08:16:50.538Z,7516.00
2023-03-17T08:17:50.498Z,7572.00
2023-03-17T08:18:50.486Z,7592.00
2023-03-17T08:19:50.479Z,7640.00
2023-03-17T08:20:50.500Z,7684.00
2023-03-17T08:21:50.487Z,7724.00
2023-03-17T08:22:50.463Z,7792.00
2023-03-17T08:23:50.582Z,7844.00
2023-03-17T08:24:50.429Z,7812.00
2023-03-17T08:25:50.448Z,7808.00
2023-03-17T08:26:50.405Z,7816.00
2023-03-17T08:27:50.443Z,7840.00
2023-03-17T08:28:50.403Z,7884.00
2023-03-17T08:29:50.385Z,7924.00
2023-03-17T08:30:50.850Z,7948.00
2023-03-17T08:31:51.465Z,8060.00
2023-03-17T08:32:50.417Z,8084.00
2023-03-17T08:33:50.356Z,8016.00
2023-03-17T08:34:50.338Z,7960.00
2023-03-17T08:35:50.561Z,8168.00
2023-03-17T08:36:50.323Z,8316.00
2023-03-17T08:37:50.315Z,8424.00
2023-03-17T08:38:50.292Z,8448.00
2023-03-17T08:39:50.287Z,8452.00
2023-03-17T08:40:50.305Z,8580.00
2023-03-17T08:41:50.276Z,8640.00
2023-03-17T08:42:50.262Z,8756.00
2023-03-17T08:43:50.248Z,8672.00
2023-03-17T08:44:50.249Z,8684.00
2023-03-17T08:45:50.349Z,8824.00
2023-03-17T08:46:50.232Z,8956.00
2023-03-17T08:47:50.237Z,9068.00
2023-03-17T08:48:50.211Z,9000.00
2023-03-17T08:49:50.191Z,9016.00
2023-03-17T08:50:50.212Z,9024.00
2023-03-17T08:51:50.192Z,8932.00
2023-03-17T08:52:50.171Z,8632.00
2023-03-17T08:53:50.155Z,8652.00
2023-03-17T08:54:50.146Z,8788.00
2023-03-17T08:55:50.140Z,8844.00
2023-03-17T08:56:50.149Z,9184.00
2023-03-17T08:57:50.111Z,8932.00
2023-03-17T08:58:50.111Z,9148.00
2023-03-17T08:59:50.097Z,9768.00
2023-03-17T09:00:50.092Z,10184.00
2023-03-17T09:01:50.123Z,10096.00
2023-03-17T09:02:50.104Z,10328.00
2023-03-17T09:03:50.055Z,10376.00
2023-03-17T09:04:50.036Z,10352.00
2023-03-17T09:05:50.037Z,10524.00
2023-03-17T09:07:02.291Z,10516.00
2023-03-17T09:07:52.031Z,10428.00
2023-03-17T09:08:50.009Z,10200.00
2023-03-17T09:09:50.002Z,10300.00
2023-03-17T09:10:49.982Z,10420.00
2023-03-17T09:11:49.996Z,10532.00
2023-03-17T09:12:49.975Z,10592.00
2023-03-17T09:13:49.946Z,10848.00
2023-03-17T09:14:49.945Z,10960.00
2023-03-17T09:15:51.860Z,11024.00
2023-03-17T09:16:50.931Z,11048.00
2023-03-17T09:17:49.916Z,11016.00
2023-03-17T09:18:49.905Z,11112.00
2023-03-17T09:19:49.919Z,11216.00
2023-03-17T09:20:49.898Z,11276.00
2023-03-17T09:21:49.871Z,11296.00
2023-03-17T09:22:49.862Z,11268.00
2023-03-17T09:23:49.861Z,11280.00
2023-03-17T09:24:49.847Z,11288.00
2023-03-17T09:25:49.844Z,11168.00
2023-03-17T09:26:49.827Z,11088.00
2023-03-17T09:27:49.847Z,11120.00
2023-03-17T09:28:49.806Z,11060.00
2023-03-17T09:29:49.790Z,10612.00
2023-03-17T09:30:49.830Z,10332.00
2023-03-17T09:31:49.766Z,10548.00
2023-03-17T09:32:49.820Z,10428.00
2023-03-17T09:33:49.758Z,10688.00
2023-03-17T09:34:51.667Z,10516.00
2023-03-17T09:35:50.831Z,10424.00
2023-03-17T09:36:49.720Z,9824.00
2023-03-17T09:37:49.710Z,10344.00
2023-03-17T09:38:49.703Z,10240.00
2023-03-17T09:39:49.732Z,10020.00
2023-03-17T09:40:49.713Z,9884.00
2023-03-17T09:41:49.674Z,9944.00
2023-03-17T09:42:49.670Z,9912.00
2023-03-17T09:43:49.654Z,9504.00
2023-03-17T09:44:50.650Z,9420.00
2023-03-17T09:45:49.649Z,9276.00
2023-03-17T09:46:49.681Z,9040.00
2023-03-17T09:47:49.606Z,9276.00
2023-03-17T09:48:49.599Z,9536.00
2023-03-17T09:49:49.604Z,9424.00
2023-03-17T09:50:49.607Z,9504.00
2023-03-17T09:51:49.577Z,9420.00
2023-03-17T09:52:51.395Z,9500.00
2023-03-17T09:53:50.557Z,9472.00
2023-03-17T09:54:49.563Z,9552.00
2023-03-17T09:55:49.592Z,9412.00
2023-03-17T09:56:49.517Z,9400.00
2023-03-17T09:57:49.510Z,9680.00
2023-03-17T09:58:51.220Z,9760.00
2023-03-17T09:59:50.487Z,9316.00
2023-03-17T10:00:49.497Z,10160.00
2023-03-17T10:01:49.494Z,10224.00
2023-03-17T10:02:49.457Z,10016.00
2023-03-17T10:03:49.457Z,9852.00
2023-03-17T10:04:49.499Z,10088.00
2023-03-17T10:05:49.499Z,9116.00
2023-03-17T10:06:49.429Z,9640.00
2023-03-17T10:07:49.404Z,9840.00
2023-03-17T10:08:49.412Z,9880.00
2023-03-17T10:09:49.397Z,9568.00
2023-03-17T10:10:49.400Z,9812.00
2023-03-17T10:11:49.379Z,9736.00
2023-03-17T10:12:49.365Z,9504.00
2023-03-17T10:13:49.393Z,9416.00
2023-03-17T10:14:51.213Z,9396.00
2023-03-17T10:15:50.365Z,9624.00
2023-03-17T10:16:49.329Z,9808.00
2023-03-17T10:17:49.320Z,9896.00
2023-03-17T10:18:49.308Z,9872.00
2023-03-17T10:19:49.332Z,9720.00
2023-03-17T10:20:51.528Z,9588.00
2023-03-17T10:21:50.293Z,9808.00
2023-03-17T10:22:49.272Z,9900.00
2023-03-17T10:23:49.265Z,10056.00
2023-03-17T10:24:49.263Z,10100.00
2023-03-17T10:25:49.244Z,10220.00
2023-03-17T10:26:49.230Z,10356.00
2023-03-17T10:27:49.237Z,10488.00
2023-03-17T10:28:49.206Z,10588.00
2023-03-17T10:29:49.212Z,10644.00
2023-03-17T10:30:49.214Z,10596.00
2023-03-17T10:31:49.206Z,10868.00
2023-03-17T10:32:49.180Z,10964.00
2023-03-17T10:33:49.159Z,11060.00
2023-03-17T10:34:49.143Z,11104.00
2023-03-17T10:35:49.182Z,11380.00
2023-03-17T10:36:49.146Z,11536.00
2023-03-17T10:37:49.119Z,11584.00
2023-03-17T10:38:49.119Z,11696.00
2023-03-17T10:39:49.115Z,11700.00
2023-03-17T10:40:49.113Z,11596.00
2023-03-17T10:41:49.073Z,11876.00
2023-03-17T10:42:49.083Z,11836.00
2023-03-17T10:43:49.059Z,11812.00
2023-03-17T10:44:49.046Z,12288.00
2023-03-17T10:45:49.057Z,12116.00
2023-03-17T10:46:49.078Z,12068.00
2023-03-17T10:47:49.026Z,11824.00
2023-03-17T10:48:49.001Z,12044.00
2023-03-17T10:49:48.996Z,12152.00
2023-03-17T10:50:49.684Z,12264.00
2023-03-17T10:51:49.969Z,12260.00
2023-03-17T10:52:48.963Z,12224.00
2023-03-17T10:53:48.959Z,12424.00
2023-03-17T10:54:48.939Z,12348.00
2023-03-17T10:55:48.948Z,12396.00
2023-03-17T10:56:48.936Z,12256.00
2023-03-17T10:57:48.935Z,12236.00
2023-03-17T10:58:48.916Z,12116.00
2023-03-17T10:59:48.883Z,12088.00
2023-03-17T11:00:48.944Z,12176.00
2023-03-17T11:01:48.873Z,12188.00
2023-03-17T11:02:48.871Z,12288.00
2023-03-17T11:03:48.950Z,12192.00
2023-03-17T11:04:48.852Z,12464.00
2023-03-17T11:05:48.892Z,12480.00
2023-03-17T11:06:48.812Z,12400.00
2023-03-17T11:07:48.822Z,12552.00
2023-03-17T11:08:48.810Z,12632.00
2023-03-17T11:09:48.804Z,12724.00
2023-03-17T11:10:48.786Z,12724.00
2023-03-17T11:11:48.815Z,12924.00
2023-03-17T11:12:48.783Z,13040.00
2023-03-17T11:13:48.774Z,12936.00
2023-03-17T11:14:48.756Z,12864.00
2023-03-17T11:15:48.733Z,12600.00
2023-03-17T11:16:48.817Z,12712.00
2023-03-17T11:17:48.757Z,12704.00
2023-03-17T11:18:49.673Z,12760.00
2023-03-17T11:19:48.723Z,12856.00
2023-03-17T11:20:48.675Z,12860.00
2023-03-17T11:21:48.698Z,12872.00
2023-03-17T11:22:48.671Z,12848.00
2023-03-17T11:23:48.656Z,12868.00
2023-03-17T11:24:48.650Z,12896.00
2023-03-17T11:25:48.648Z,12856.00
2023-03-17T11:26:48.649Z,12784.00
2023-03-17T11:27:48.613Z,12732.00
2023-03-17T11:28:48.607Z,12648.00
2023-03-17T11:29:48.598Z,12600.00
2023-03-17T11:30:48.598Z,12604.00
2023-03-17T11:31:48.765Z,12528.00
2023-03-17T11:32:48.574Z,12520.00
2023-03-17T11:33:48.557Z,12512.00
2023-03-17T11:34:48.543Z,12472.00
2023-03-17T11:35:48.565Z,12496.00
2023-03-17T11:36:48.540Z,12500.00
2023-03-17T11:37:48.519Z,12460.00
2023-03-17T11:38:48.516Z,12536.00
2023-03-17T11:39:48.506Z,12480.00
2023-03-17T11:40:48.498Z,12416.00
2023-03-17T11:41:48.508Z,12440.00
2023-03-17T11:42:48.475Z,12436.00
2023-03-17T11:43:48.473Z,12400.00
2023-03-17T11:44:48.451Z,12404.00
2023-03-17T11:45:48.474Z,12436.00
2023-03-17T11:46:48.454Z,12416.00
2023-03-17T11:47:48.433Z,12408.00
2023-03-17T11:48:48.415Z,12440.00
2023-03-17T11:49:48.403Z,12488.00
2023-03-17T11:50:48.400Z,12552.00
2023-03-17T11:51:48.411Z,12584.00
2023-03-17T11:52:48.376Z,12660.00
2023-03-17T11:53:48.368Z,12696.00
2023-03-17T11:54:48.362Z,12736.00
2023-03-17T11:55:48.359Z,12800.00
2023-03-17T11:56:48.369Z,12896.00
2023-03-17T11:57:48.347Z,13084.00
2023-03-17T11:58:48.311Z,13276.00
2023-03-17T11:59:48.303Z,13476.00
2023-03-17T12:00:48.301Z,13676.00
2023-03-17T12:01:48.312Z,13876.00
2023-03-17T12:02:48.282Z,14040.00
2023-03-17T12:03:48.345Z,14208.00
2023-03-17T12:04:48.315Z,14316.00
2023-03-17T12:05:48.253Z,14476.00
2023-03-17T12:06:48.253Z,14512.00
2023-03-17T12:07:48.251Z,14520.00
2023-03-17T12:08:48.227Z,14520.00
2023-03-17T12:09:48.204Z,14564.00
2023-03-17T12:10:48.207Z,14548.00
2023-03-17T12:11:48.203Z,14560.00
2023-03-17T12:12:48.185Z,14508.00
2023-03-17T12:13:48.170Z,14420.00
2023-03-17T12:14:48.152Z,14380.00
2023-03-17T12:15:48.151Z,14316.00
2023-03-17T12:16:48.162Z,14256.00
2023-03-17T12:17:48.118Z,14208.00
2023-03-17T12:18:48.109Z,14108.00
2023-03-17T12:19:48.107Z,14040.00
2023-03-17T12:20:48.102Z,13964.00
2023-03-17T12:21:48.124Z,13860.00
2023-03-17T12:22:48.081Z,13744.00
2023-03-17T12:23:48.069Z,13640.00
2023-03-17T12:24:48.058Z,13524.00
2023-03-17T12:25:48.053Z,13408.00
2023-03-17T12:26:48.062Z,13316.00
2023-03-17T12:27:48.025Z,13232.00
2023-03-17T12:28:48.019Z,13116.00
2023-03-17T12:29:48.007Z,12992.00
2023-03-17T12:30:48.051Z,12848.00